LICC/CTA METAR and TAF weather

Enter ICAO airport designator
Station Type Date Time Source
LICC METAR 2019/02/20 17:50 UTC NOAA

LICC 201750Z 06010KT CAVOK 13/08 Q1024


Station Type Date Time Source
LICC Decoded METAR 2019/02/20 17:50 UTC NOAA

Catania / Fontanarossa, Italy (LICC) 37-28N 015-03E 17M
Feb 20, 2019 - 12:50 PM EST / 2019.02.20 1750 UTC
Wind: from the ENE (060 degrees) at 12 MPH (10 KT):0
Visibility: greater than 7 mile(s):0
Temperature: 55 F (13 C)
Dew Point: 46 F (8 C)
Relative Humidity: 71%
Pressure (altimeter): 30.24 in. Hg (1024 hPa)
ob: LICC 201750Z 06010KT CAVOK 13/08 Q1024
cycle: 18

Station Type Date Time Source
LICC TAF 2019/02/20 18:21 UTC NOAA

TAF LICC 201700Z 2018/2118 VRB05KT 9999 FEW030
BECMG 2108/2110 07010KT


Example: see airport list